createdAt,value
2016-11-22T00:00:22.002Z,20.44
2016-11-22T00:01:35.447Z,20.37
2016-11-22T00:02:48.951Z,20.41
2016-11-22T00:04:02.557Z,20.44
2016-11-22T00:05:16.040Z,20.35
2016-11-22T00:06:28.507Z,20.4
2016-11-22T00:07:42.064Z,20.29
2016-11-22T00:08:55.614Z,20.35
2016-11-22T00:10:09.077Z,20.25
2016-11-22T00:11:22.588Z,20.26
2016-11-22T00:12:35.513Z,20.26
2016-11-22T00:13:47.939Z,20.34
2016-11-22T00:15:01.724Z,20.26
2016-11-22T00:16:14.637Z,20.26
2016-11-22T00:17:27.590Z,20.27
2016-11-22T00:18:41.091Z,20.26
2016-11-22T00:19:54.061Z,20.22
2016-11-22T00:21:07.621Z,20.18
2016-11-22T00:22:21.103Z,20.18
2016-11-22T00:23:34.084Z,20.07
2016-11-22T00:24:46.546Z,20.2
2016-11-22T00:26:00.059Z,20.15
2016-11-22T00:27:13.543Z,20.16
2016-11-22T00:28:26.527Z,19.93
2016-11-22T00:29:39.477Z,20.04
2016-11-22T00:30:51.923Z,19.98
2016-11-22T00:32:04.958Z,20.05
2016-11-22T00:33:17.426Z,19.93
2016-11-22T00:34:30.383Z,19.9
2016-11-22T00:35:43.384Z,19.85
2016-11-22T00:36:56.425Z,19.75
2016-11-22T00:38:09.368Z,19.71
2016-11-22T00:39:22.350Z,19.74
2016-11-22T00:40:35.872Z,19.83
2016-11-22T00:41:49.251Z,19.8
2016-11-22T00:43:02.328Z,19.71
2016-11-22T00:44:15.814Z,19.7
2016-11-22T00:45:28.788Z,19.65
2016-11-22T00:46:41.693Z,19.65
2016-11-22T00:47:54.808Z,19.7
2016-11-22T00:49:07.347Z,19.8
2016-11-22T00:50:19.871Z,19.72
2016-11-22T00:51:31.873Z,19.65
2016-11-22T00:52:45.311Z,19.7
2016-11-22T00:53:58.423Z,19.63
2016-11-22T00:55:11.945Z,19.64
2016-11-22T00:56:25.396Z,19.63
2016-11-22T00:57:37.767Z,19.63
2016-11-22T00:58:50.819Z,19.63
2016-11-22T01:00:04.286Z,19.68
2016-11-22T01:01:17.200Z,19.67
2016-11-22T01:02:30.713Z,19.65
2016-11-22T01:03:44.156Z,19.67
2016-11-22T01:04:57.134Z,19.57
2016-11-22T01:06:10.640Z,19.6
2016-11-22T01:07:23.558Z,19.53
2016-11-22T01:08:36.986Z,19.5
2016-11-22T01:09:50.678Z,19.57
2016-11-22T01:11:03.677Z,19.56
2016-11-22T01:12:17.143Z,19.6
2016-11-22T01:13:30.153Z,19.57
2016-11-22T01:14:43.669Z,19.49
2016-11-22T01:15:56.099Z,19.52
2016-11-22T01:17:08.977Z,19.49
2016-11-22T01:18:21.993Z,19.56
2016-11-22T01:19:35.528Z,19.57
2016-11-22T01:20:48.634Z,19.61
2016-11-22T01:22:02.192Z,19.55
2016-11-22T01:23:15.105Z,19.5
2016-11-22T01:24:28.554Z,19.52
2016-11-22T01:25:41.489Z,19.46
2016-11-22T01:26:55.033Z,19.55
2016-11-22T01:28:08.471Z,19.57
2016-11-22T01:29:21.448Z,19.56
2016-11-22T01:30:34.403Z,19.6
2016-11-22T01:31:47.525Z,19.63
2016-11-22T01:32:59.971Z,19.55
2016-11-22T01:34:13.436Z,19.52
2016-11-22T01:35:25.830Z,19.53
2016-11-22T01:36:38.819Z,19.47
2016-11-22T01:37:51.948Z,19.53
2016-11-22T01:39:04.910Z,19.57
2016-11-22T01:40:18.362Z,19.53
2016-11-22T01:41:31.915Z,19.56
2016-11-22T01:42:45.603Z,19.5
2016-11-22T01:43:59.039Z,19.55
2016-11-22T01:45:11.972Z,19.47
2016-11-22T01:46:24.386Z,19.57
2016-11-22T01:47:37.305Z,19.45
2016-11-22T01:48:50.253Z,19.46
2016-11-22T01:50:02.185Z,19.32
2016-11-22T01:51:15.747Z,19.35
2016-11-22T01:52:29.237Z,19.37
2016-11-22T01:53:42.899Z,19.31
2016-11-22T01:54:55.881Z,19.47
2016-11-22T01:56:08.815Z,19.43
2016-11-22T01:57:21.753Z,19.5
2016-11-22T01:58:33.669Z,19.42
2016-11-22T01:59:46.589Z,19.49
2016-11-22T02:00:59.546Z,19.56
2016-11-22T02:02:12.467Z,19.55
2016-11-22T02:03:25.485Z,19.61
2016-11-22T02:04:38.120Z,19.67
2016-11-22T02:05:51.651Z,19.63
2016-11-22T02:07:05.104Z,19.7
2016-11-22T02:08:18.563Z,19.7
2016-11-22T02:09:31.519Z,19.67
2016-11-22T02:10:45.133Z,19.7
2016-11-22T02:11:58.585Z,19.7
2016-11-22T02:13:12.107Z,19.68
2016-11-22T02:14:25.539Z,19.63
2016-11-22T02:15:38.682Z,19.63
2016-11-22T02:16:52.144Z,19.6
2016-11-22T02:18:05.190Z,19.61
2016-11-22T02:19:18.202Z,19.5
2016-11-22T02:20:31.165Z,19.56
2016-11-22T02:21:44.748Z,19.64
2016-11-22T02:22:57.247Z,19.65
2016-11-22T02:24:10.445Z,19.75
2016-11-22T02:25:22.874Z,19.75
2016-11-22T02:26:35.947Z,19.75
2016-11-22T02:27:49.499Z,19.74
2016-11-22T02:29:02.942Z,19.72
2016-11-22T02:30:16.435Z,19.8
2016-11-22T02:31:28.884Z,19.82
2016-11-22T02:32:41.845Z,19.85
2016-11-22T02:33:54.832Z,19.95
2016-11-22T02:35:08.325Z,19.89
2016-11-22T02:36:21.259Z,19.89
2016-11-22T02:37:34.760Z,19.92
2016-11-22T02:38:47.156Z,19.9
2016-11-22T02:40:31.285Z,19.87
2016-11-22T02:41:44.256Z,19.98
2016-11-22T02:42:57.866Z,19.93
2016-11-22T02:44:10.358Z,19.95
2016-11-22T02:45:23.830Z,19.93
2016-11-22T02:46:37.335Z,19.86
2016-11-22T02:47:50.378Z,19.92
2016-11-22T02:49:03.991Z,19.9
2016-11-22T02:50:17.500Z,19.93
2016-11-22T02:51:29.974Z,20
2016-11-22T02:52:43.472Z,20.04
2016-11-22T02:53:57.120Z,20
2016-11-22T02:55:09.581Z,19.92
2016-11-22T02:56:22.045Z,19.97
2016-11-22T02:57:35.640Z,20.01
2016-11-22T02:58:48.635Z,20.01
2016-11-22T03:00:02.194Z,20.01
2016-11-22T03:01:14.622Z,20.02
2016-11-22T03:02:58.717Z,20.01
2016-11-22T03:04:11.747Z,19.95
2016-11-22T03:05:24.739Z,20
2016-11-22T03:06:37.719Z,19.93
2016-11-22T03:07:50.676Z,19.9
2016-11-22T03:09:03.639Z,19.83
2016-11-22T03:10:16.687Z,19.92
2016-11-22T03:11:30.281Z,19.83
2016-11-22T03:12:42.137Z,19.83
2016-11-22T03:13:55.655Z,19.71
2016-11-22T03:15:08.293Z,19.74
2016-11-22T03:16:21.764Z,19.79
2016-11-22T03:17:34.700Z,19.79
2016-11-22T03:18:47.791Z,19.85
2016-11-22T03:20:00.296Z,19.82
2016-11-22T03:21:12.742Z,19.82
2016-11-22T03:22:25.717Z,19.72
2016-11-22T03:23:39.265Z,19.75
2016-11-22T03:24:52.203Z,19.75
2016-11-22T03:26:05.275Z,19.72
2016-11-22T03:27:18.236Z,19.63
2016-11-22T03:28:31.416Z,19.64
2016-11-22T03:29:44.900Z,19.61
2016-11-22T03:31:29.327Z,19.52
2016-11-22T03:32:44.826Z,19.5
2016-11-22T03:33:57.882Z,19.5
2016-11-22T03:35:42.553Z,19.49
2016-11-22T03:36:56.257Z,19.45
2016-11-22T03:38:09.982Z,19.43
2016-11-22T03:39:23.707Z,19.47
2016-11-22T03:40:37.295Z,19.34
2016-11-22T03:41:51.039Z,19.31
2016-11-22T03:43:04.561Z,19.24
2016-11-22T03:44:17.605Z,19.23
2016-11-22T03:45:30.631Z,19.2
2016-11-22T03:46:42.740Z,19.2
2016-11-22T03:47:56.409Z,19.19
2016-11-22T03:49:09.885Z,19.19
2016-11-22T03:50:22.904Z,19.16
2016-11-22T03:51:35.990Z,19.12
2016-11-22T03:52:49.654Z,19.16
2016-11-22T03:54:03.187Z,19.02
2016-11-22T03:55:15.715Z,19.05
2016-11-22T03:56:28.824Z,18.99
2016-11-22T03:57:42.432Z,19
2016-11-22T03:58:56.201Z,19.05
2016-11-22T04:00:09.746Z,18.96
2016-11-22T04:01:23.402Z,19
2016-11-22T04:04:21.238Z,19
2016-11-22T04:05:33.127Z,19.06
2016-11-22T04:06:45.784Z,19.07
2016-11-22T04:07:59.337Z,19.16
2016-11-22T04:09:12.916Z,19.27
2016-11-22T04:10:25.398Z,19.19
2016-11-22T04:11:38.992Z,19.34
2016-11-22T04:12:52.575Z,19.35
2016-11-22T04:14:06.088Z,19.35
2016-11-22T04:15:19.274Z,19.35
2016-11-22T04:16:31.239Z,19.31
2016-11-22T04:17:43.860Z,19.34
2016-11-22T04:18:56.926Z,19.23
2016-11-22T04:20:09.411Z,19.24
2016-11-22T04:21:23.087Z,19.27
2016-11-22T04:22:36.704Z,19.16
2016-11-22T04:23:48.642Z,19.24
2016-11-22T04:25:01.646Z,19.19
2016-11-22T04:26:14.346Z,19.23
2016-11-22T04:27:27.394Z,19.19
2016-11-22T04:28:40.383Z,19.24
2016-11-22T04:29:53.392Z,19.23
2016-11-22T04:31:06.429Z,19.25
2016-11-22T04:32:18.829Z,19.23
2016-11-22T04:33:31.818Z,19.32
2016-11-22T04:34:44.383Z,19.31
2016-11-22T04:35:58.082Z,19.34
2016-11-22T04:37:11.715Z,19.34
2016-11-22T04:38:24.715Z,19.31
2016-11-22T04:39:37.718Z,19.31
2016-11-22T04:40:50.907Z,19.45
2016-11-22T04:42:03.950Z,19.4
2016-11-22T04:43:17.684Z,19.37
2016-11-22T04:44:30.691Z,19.53
2016-11-22T04:45:43.804Z,19.45
2016-11-22T04:46:57.429Z,19.43
2016-11-22T04:48:09.642Z,19.49
2016-11-22T04:49:23.363Z,19.42
2016-11-22T04:50:36.413Z,19.49
2016-11-22T04:51:48.910Z,19.57
2016-11-22T04:53:02.006Z,19.57
2016-11-22T04:54:15.138Z,19.46
2016-11-22T04:55:28.699Z,19.56
2016-11-22T04:56:41.192Z,19.47
2016-11-22T04:57:55.052Z,19.52
2016-11-22T04:59:08.724Z,19.46
2016-11-22T05:00:21.753Z,19.46
2016-11-22T05:01:35.289Z,19.3
2016-11-22T05:02:48.269Z,19.34
2016-11-22T05:04:01.746Z,19.19
2016-11-22T05:05:14.780Z,19.23
2016-11-22T05:06:27.494Z,19.23
2016-11-22T05:07:39.616Z,19.23
2016-11-22T05:08:52.120Z,19.25
2016-11-22T05:10:36.393Z,19.25
2016-11-22T05:11:49.958Z,19.23
2016-11-22T05:13:03.580Z,19.19
2016-11-22T05:14:16.617Z,19.34
2016-11-22T05:15:29.617Z,19.35
2016-11-22T05:16:43.377Z,19.3
2016-11-22T05:17:56.438Z,19.32
2016-11-22T05:20:54.884Z,19.35
2016-11-22T05:22:07.450Z,19.3
2016-11-22T05:23:20.426Z,19.35
2016-11-22T05:24:33.673Z,19.37
2016-11-22T05:25:47.556Z,19.35
2016-11-22T05:27:00.142Z,19.32
2016-11-22T05:28:12.098Z,19.34
2016-11-22T05:29:25.127Z,19.32
2016-11-22T05:30:38.706Z,19.45
2016-11-22T05:31:52.060Z,19.47
2016-11-22T05:33:05.111Z,19.32
2016-11-22T05:34:18.127Z,19.32
2016-11-22T05:35:31.623Z,19.38
2016-11-22T05:36:45.174Z,19.32
2016-11-22T05:37:58.175Z,19.32
2016-11-22T05:39:11.189Z,19.37
2016-11-22T05:40:23.651Z,19.28
2016-11-22T05:41:37.193Z,19.19
2016-11-22T05:42:49.877Z,19.23
2016-11-22T05:44:02.331Z,19.15
2016-11-22T05:45:15.327Z,19.1
2016-11-22T05:46:59.973Z,19.06
2016-11-22T05:48:13.663Z,18.99
2016-11-22T05:49:26.653Z,18.97
2016-11-22T05:50:40.136Z,18.87
2016-11-22T05:51:53.625Z,18.9
2016-11-22T05:53:07.239Z,18.96
2016-11-22T05:54:21.491Z,18.97
2016-11-22T05:55:35.045Z,19.05
2016-11-22T05:56:48.569Z,18.97
2016-11-22T05:58:01.621Z,19.05
2016-11-22T05:59:14.752Z,18.99
2016-11-22T06:00:27.791Z,19.05
2016-11-22T06:01:40.821Z,19.1
2016-11-22T06:02:54.364Z,18.99
2016-11-22T06:04:39.114Z,19.02
2016-11-22T06:05:52.082Z,19.02
2016-11-22T06:07:05.076Z,18.87
2016-11-22T06:08:18.067Z,18.89
2016-11-22T06:09:31.622Z,18.91
2016-11-22T06:10:44.764Z,18.81
2016-11-22T06:11:58.381Z,18.78
2016-11-22T06:13:11.391Z,18.81
2016-11-22T06:14:24.881Z,18.76
2016-11-22T06:15:37.995Z,18.75
2016-11-22T06:16:50.438Z,18.69
2016-11-22T06:18:04.043Z,18.75
2016-11-22T06:19:17.084Z,18.72
2016-11-22T06:20:29.603Z,18.65
2016-11-22T06:21:42.232Z,18.68
2016-11-22T06:22:55.811Z,18.61
2016-11-22T06:24:09.304Z,18.63
2016-11-22T06:25:21.801Z,18.47
2016-11-22T06:26:35.457Z,18.54
2016-11-22T06:27:47.902Z,18.45
2016-11-22T06:29:00.393Z,18.49
2016-11-22T06:30:12.904Z,18.42
2016-11-22T06:31:26.429Z,18.41
2016-11-22T06:32:40.162Z,18.36
2016-11-22T06:33:53.670Z,18.42
2016-11-22T06:35:06.197Z,18.38
2016-11-22T06:36:19.771Z,18.39
2016-11-22T06:37:33.413Z,18.35
2016-11-22T06:38:46.488Z,18.34
2016-11-22T06:39:59.464Z,18.26
2016-11-22T06:41:12.471Z,18.32
2016-11-22T06:42:26.084Z,18.26
2016-11-22T06:43:39.638Z,18.31
2016-11-22T06:44:52.696Z,18.29
2016-11-22T06:46:06.180Z,18.29
2016-11-22T06:47:19.244Z,18.32
2016-11-22T06:48:32.480Z,18.34
2016-11-22T06:49:46.068Z,18.35
2016-11-22T06:50:59.145Z,18.24
2016-11-22T06:52:11.640Z,18.27
2016-11-22T06:53:24.684Z,18.32
2016-11-22T06:54:37.872Z,18.31
2016-11-22T06:55:51.464Z,18.27
2016-11-22T06:57:04.471Z,18.38
2016-11-22T06:58:17.977Z,18.45
2016-11-22T06:59:31.679Z,18.36
2016-11-22T07:00:44.188Z,18.39
2016-11-22T07:01:57.713Z,18.42
2016-11-22T07:03:09.671Z,18.49
2016-11-22T07:04:22.758Z,18.47
2016-11-22T07:05:35.748Z,18.45
2016-11-22T07:06:49.327Z,18.5
2016-11-22T07:08:01.840Z,18.6
2016-11-22T07:09:14.333Z,18.61
2016-11-22T07:10:28.102Z,18.66
2016-11-22T07:11:41.671Z,18.71
2016-11-22T07:12:54.136Z,18.65
2016-11-22T07:14:07.731Z,18.74
2016-11-22T07:15:20.202Z,18.66
2016-11-22T07:16:33.843Z,18.71
2016-11-22T07:17:46.960Z,18.76
2016-11-22T07:19:00.497Z,18.79
2016-11-22T07:20:12.979Z,18.81
2016-11-22T07:21:26.160Z,18.94
2016-11-22T07:22:39.208Z,18.81
2016-11-22T07:23:52.794Z,18.84
2016-11-22T07:25:06.405Z,18.81
2016-11-22T07:26:19.468Z,18.82
2016-11-22T07:27:32.026Z,18.76
2016-11-22T07:28:45.578Z,18.71
2016-11-22T07:29:59.165Z,18.75
2016-11-22T07:31:12.693Z,18.71
2016-11-22T07:32:25.792Z,18.68
2016-11-22T07:33:38.257Z,18.59
2016-11-22T07:34:51.768Z,18.49
2016-11-22T07:36:04.774Z,18.45
2016-11-22T07:37:18.313Z,18.36
2016-11-22T07:38:30.802Z,18.41
2016-11-22T07:39:44.326Z,18.26
2016-11-22T07:40:57.298Z,18.27
2016-11-22T07:42:10.880Z,18.35
2016-11-22T07:43:23.987Z,18.31
2016-11-22T07:44:37.471Z,18.31
2016-11-22T07:45:51.053Z,18.24
2016-11-22T07:47:03.516Z,18.29
2016-11-22T07:48:16.643Z,18.24
2016-11-22T07:49:29.653Z,18.21
2016-11-22T07:50:42.678Z,18.16
2016-11-22T07:51:56.235Z,18.1
2016-11-22T07:53:09.294Z,18.13
2016-11-22T07:54:22.946Z,18.11
2016-11-22T07:55:35.976Z,18.1
2016-11-22T07:56:48.449Z,17.98
2016-11-22T07:58:01.995Z,17.87
2016-11-22T07:59:14.437Z,17.88
2016-11-22T08:00:27.441Z,17.86
2016-11-22T08:01:39.917Z,17.77
2016-11-22T08:02:52.958Z,17.73
2016-11-22T08:04:06.502Z,17.63
2016-11-22T08:05:20.127Z,17.66
2016-11-22T08:06:33.120Z,17.62
2016-11-22T08:07:46.641Z,17.52
2016-11-22T08:09:00.245Z,17.6
2016-11-22T08:10:13.798Z,17.5
2016-11-22T08:11:26.873Z,17.45
2016-11-22T08:12:40.400Z,17.38
2016-11-22T08:13:53.454Z,17.4
2016-11-22T08:15:06.940Z,17.36
2016-11-22T08:16:20.706Z,17.43
2016-11-22T08:17:34.314Z,17.31
2016-11-22T08:18:47.348Z,17.36
2016-11-22T08:20:00.938Z,17.32
2016-11-22T08:21:13.949Z,17.2
2016-11-22T08:22:27.553Z,17.24
2016-11-22T08:23:40.017Z,17.18
2016-11-22T08:24:53.622Z,17.15
2016-11-22T08:26:07.243Z,17.17
2016-11-22T08:27:20.816Z,17.1
2016-11-22T08:28:34.287Z,17.05
2016-11-22T08:29:47.308Z,17.1
2016-11-22T08:31:00.322Z,17.13
2016-11-22T08:32:13.475Z,17.09
2016-11-22T08:33:57.582Z,17.1
2016-11-22T08:35:11.117Z,17.17
2016-11-22T08:36:24.106Z,17.12
2016-11-22T08:37:37.834Z,17.12
2016-11-22T08:38:51.316Z,17.1
2016-11-22T08:40:04.296Z,17.07
2016-11-22T08:41:16.796Z,17.06
2016-11-22T08:42:30.391Z,17.05
2016-11-22T08:43:43.545Z,17.05
2016-11-22T08:44:56.516Z,17.06
2016-11-22T08:46:09.505Z,17.1
2016-11-22T08:47:21.518Z,17.09
2016-11-22T08:48:35.124Z,17.07
2016-11-22T08:49:48.189Z,17.09
2016-11-22T08:51:01.668Z,17.13
2016-11-22T08:52:13.578Z,17.2
2016-11-22T08:53:27.190Z,17.3
2016-11-22T08:54:41.082Z,17.21
2016-11-22T08:55:54.175Z,17.31
2016-11-22T08:57:06.639Z,17.4
2016-11-22T08:58:20.175Z,17.3
2016-11-22T08:59:32.941Z,17.3
2016-11-22T09:00:45.418Z,17.1
2016-11-22T09:01:57.933Z,17.1
2016-11-22T09:03:12.047Z,17.1
2016-11-22T09:04:25.042Z,17.09
2016-11-22T09:05:38.696Z,17.09
2016-11-22T09:06:51.771Z,17.21
2016-11-22T09:08:04.866Z,17.21
2016-11-22T09:09:17.939Z,17.32
2016-11-22T09:10:30.822Z,17.31
2016-11-22T09:11:43.782Z,17.42
2016-11-22T09:12:56.716Z,17.6
2016-11-22T09:14:10.208Z,17.69
2016-11-22T09:15:22.643Z,17.83
2016-11-22T09:16:36.228Z,17.79
2016-11-22T09:17:48.697Z,17.87
2016-11-22T09:19:01.652Z,17.99
2016-11-22T09:20:14.878Z,18.1
2016-11-22T09:21:27.950Z,18.23
2016-11-22T09:22:41.410Z,18.27
2016-11-22T09:23:54.848Z,18.42
2016-11-22T09:25:07.437Z,18.41
2016-11-22T09:26:21.246Z,18.31
2016-11-22T09:27:35.232Z,18.27
2016-11-22T09:28:48.216Z,18.13
2016-11-22T09:30:01.492Z,18.16
2016-11-22T09:31:14.579Z,18.24
2016-11-22T09:32:27.844Z,18.24
2016-11-22T09:33:41.367Z,18.41
2016-11-22T09:34:54.579Z,18.65
2016-11-22T09:36:07.711Z,19.13
2016-11-22T09:37:21.208Z,19.64
2016-11-22T09:38:34.314Z,19.55
2016-11-22T09:39:47.916Z,19.31
2016-11-22T09:41:01.484Z,19.35
2016-11-22T09:42:15.393Z,19.46
2016-11-22T09:43:29.732Z,19.46
2016-11-22T09:44:42.809Z,19.63
2016-11-22T09:45:56.672Z,19.79
2016-11-22T09:47:11.108Z,20.02
2016-11-22T09:48:24.827Z,20.05
2016-11-22T09:49:38.762Z,20.16
2016-11-22T09:51:23.391Z,20.23
2016-11-22T09:52:37.551Z,20.26
2016-11-22T09:53:52.543Z,20.19
2016-11-22T09:55:06.291Z,20.15
2016-11-22T09:56:18.982Z,20.4
2016-11-22T09:57:32.161Z,20.46
2016-11-22T09:58:46.204Z,20.58
2016-11-22T10:00:00.099Z,20.54
2016-11-22T10:01:14.741Z,20.64
2016-11-22T10:02:28.692Z,20.83
2016-11-22T10:03:41.684Z,21.31
2016-11-22T10:04:54.859Z,21.41
2016-11-22T10:06:07.851Z,21.68
2016-11-22T10:07:20.957Z,21.71
2016-11-22T10:08:33.450Z,21.58
2016-11-22T10:09:46.526Z,21.59
2016-11-22T10:10:59.500Z,21.93
2016-11-22T10:12:12.057Z,22.46
2016-11-22T10:13:25.620Z,22.64
2016-11-22T10:14:39.141Z,22.45
2016-11-22T10:15:52.138Z,22.34
2016-11-22T10:17:05.052Z,22.44
2016-11-22T10:18:16.973Z,22.55
2016-11-22T10:19:30.482Z,22.92
2016-11-22T10:20:44.409Z,23.26
2016-11-22T10:21:57.461Z,23.66
2016-11-22T10:23:10.895Z,24.42
2016-11-22T10:24:23.900Z,25.24
2016-11-22T10:25:37.347Z,25.78
2016-11-22T10:27:21.261Z,25.6
2016-11-22T10:28:34.249Z,25.41
2016-11-22T10:29:47.723Z,25.12
2016-11-22T10:31:00.845Z,25.48
2016-11-22T10:32:13.858Z,25.56
2016-11-22T10:33:26.818Z,25.74
2016-11-22T10:34:39.859Z,25.88
2016-11-22T10:35:52.982Z,26.09
2016-11-22T10:37:06.077Z,26.39
2016-11-22T10:38:19.657Z,26.16
2016-11-22T10:39:33.890Z,26.22
2016-11-22T10:40:46.909Z,26.17
2016-11-22T10:42:00.483Z,25.88
2016-11-22T10:43:13.478Z,25.86
2016-11-22T10:44:26.427Z,26.17
2016-11-22T10:45:39.937Z,26.01
2016-11-22T10:46:52.377Z,25.86
2016-11-22T10:48:05.320Z,25.94
2016-11-22T10:49:18.370Z,26.12
2016-11-22T10:50:31.667Z,25.85
2016-11-22T10:51:45.143Z,25.94
2016-11-22T10:52:58.953Z,25.78
2016-11-22T10:54:12.522Z,25.74
2016-11-22T10:55:25.976Z,26.04
2016-11-22T10:56:39.521Z,26.32
2016-11-22T10:57:52.606Z,27.15
2016-11-22T10:59:05.607Z,27.26
2016-11-22T11:00:19.259Z,27.13
2016-11-22T11:01:33.186Z,27.46
2016-11-22T11:02:46.745Z,27.66
2016-11-22T11:03:59.198Z,28.01
2016-11-22T11:05:12.205Z,28.24
2016-11-22T11:06:24.633Z,27.91
2016-11-22T11:07:38.163Z,27.57
2016-11-22T11:08:51.177Z,27.53
2016-11-22T11:10:04.176Z,27.74
2016-11-22T11:11:17.206Z,27.96
2016-11-22T11:12:30.681Z,27.59
2016-11-22T11:13:44.166Z,27.49
2016-11-22T11:14:57.321Z,27.36
2016-11-22T11:16:10.271Z,27.09
2016-11-22T11:17:22.206Z,26.44
2016-11-22T11:18:35.765Z,26.15
2016-11-22T11:19:48.693Z,26.24
2016-11-22T11:21:01.784Z,26.19
2016-11-22T11:22:14.790Z,26.19
2016-11-22T11:23:28.332Z,26.45
2016-11-22T11:24:41.848Z,26.99
2016-11-22T11:25:55.380Z,27.68
2016-11-22T11:27:08.868Z,27.84
2016-11-22T11:28:22.063Z,27.66
2016-11-22T11:29:35.165Z,27.18
2016-11-22T11:30:48.162Z,27.04
2016-11-22T11:32:01.189Z,26.16
2016-11-22T11:33:14.241Z,26.37
2016-11-22T11:34:27.269Z,26.26
2016-11-22T11:35:40.823Z,26.34
2016-11-22T11:36:54.582Z,26.23
2016-11-22T11:38:07.605Z,26.53
2016-11-22T11:39:21.104Z,27.01
2016-11-22T11:40:34.177Z,27.34
2016-11-22T11:41:47.614Z,27.21
2016-11-22T11:43:00.058Z,27.24
2016-11-22T11:44:12.645Z,27.59
2016-11-22T11:45:26.243Z,27.81
2016-11-22T11:46:39.202Z,27.27
2016-11-22T11:47:52.899Z,27.59
2016-11-22T11:49:06.001Z,27.42
2016-11-22T11:50:19.012Z,26.74
2016-11-22T11:51:32.753Z,26.74
2016-11-22T11:52:46.187Z,27.87
2016-11-22T11:53:59.916Z,28.67
2016-11-22T11:55:13.019Z,29.42
2016-11-22T11:56:24.952Z,29.5
2016-11-22T11:57:38.455Z,29.1
2016-11-22T11:58:51.562Z,28.63
2016-11-22T12:00:04.597Z,28.54
2016-11-22T12:03:02.236Z,28.26
2016-11-22T12:04:15.220Z,28.76
2016-11-22T12:05:28.198Z,29.26
2016-11-22T12:06:41.289Z,29.38
2016-11-22T12:07:54.746Z,28.92
2016-11-22T12:09:08.438Z,28.79
2016-11-22T12:10:21.454Z,28.6
2016-11-22T12:11:34.438Z,28.82
2016-11-22T12:12:47.976Z,28.7
2016-11-22T12:14:00.968Z,29.17
2016-11-22T12:15:13.442Z,29.38
2016-11-22T12:16:26.443Z,29.81
2016-11-22T12:17:39.378Z,29.7
2016-11-22T12:18:52.395Z,29.14
2016-11-22T12:20:36.831Z,29.43
2016-11-22T12:21:49.458Z,28.98
2016-11-22T12:23:02.464Z,28.57
2016-11-22T12:24:15.404Z,28.21
2016-11-22T12:25:28.891Z,28.41
2016-11-22T12:26:41.858Z,28.53
2016-11-22T12:27:55.401Z,28.21
2016-11-22T12:29:08.508Z,28.03
2016-11-22T12:30:20.983Z,28.09
2016-11-22T12:31:34.017Z,28.08
2016-11-22T12:32:47.055Z,28.26
2016-11-22T12:34:00.631Z,28.33
2016-11-22T12:35:13.064Z,28.88
2016-11-22T12:36:26.124Z,29.29
2016-11-22T12:37:39.206Z,28.94
2016-11-22T12:38:52.139Z,29.2
2016-11-22T12:40:05.657Z,29.65
2016-11-22T12:41:18.580Z,29.23
2016-11-22T12:42:31.726Z,29.1
2016-11-22T12:43:44.745Z,28.61
2016-11-22T12:44:58.495Z,28.33
2016-11-22T12:46:11.624Z,28.42
2016-11-22T12:47:24.662Z,28.57
2016-11-22T12:48:37.687Z,28.45
2016-11-22T12:49:50.222Z,28.73
2016-11-22T12:51:03.850Z,29.38
2016-11-22T12:52:16.408Z,30.04
2016-11-22T12:53:29.032Z,29.26
2016-11-22T12:54:42.399Z,28.55
2016-11-22T12:55:55.453Z,28.33
2016-11-22T12:57:07.895Z,28.64
2016-11-22T12:58:20.874Z,28.73
2016-11-22T12:59:33.342Z,28.57
2016-11-22T13:00:46.929Z,29.24
2016-11-22T13:01:59.943Z,29.21
2016-11-22T13:03:12.921Z,29.18
2016-11-22T13:04:26.379Z,29.08
2016-11-22T13:05:39.295Z,29.29
2016-11-22T13:06:52.254Z,29.66
2016-11-22T13:08:05.304Z,29.17
2016-11-22T13:09:18.250Z,28.63
2016-11-22T13:11:02.943Z,28.38
2016-11-22T13:12:15.954Z,28.16
2016-11-22T13:13:28.537Z,27.55
2016-11-22T13:14:42.426Z,27.33
2016-11-22T13:15:55.398Z,27.76
2016-11-22T13:17:08.433Z,29.06
2016-11-22T13:18:22.034Z,30.26
2016-11-22T13:19:35.528Z,30.73
2016-11-22T13:20:49.088Z,31.16
2016-11-22T13:22:01.005Z,31.01
2016-11-22T13:23:14.008Z,30.49
2016-11-22T13:24:27.007Z,29.79
2016-11-22T13:25:40.151Z,29.08
2016-11-22T13:26:52.610Z,28.78
2016-11-22T13:28:05.574Z,28.51
2016-11-22T13:29:18.347Z,28.06
2016-11-22T13:30:31.568Z,28.05
2016-11-22T13:31:44.145Z,28.18
2016-11-22T13:32:57.271Z,28.78
2016-11-22T13:34:09.267Z,29.57
2016-11-22T13:35:22.771Z,29.67
2016-11-22T13:36:36.569Z,29.82
2016-11-22T13:37:49.532Z,30.21
2016-11-22T13:39:03.134Z,30.73
2016-11-22T13:40:16.692Z,30.7
2016-11-22T13:41:30.202Z,30.04
2016-11-22T13:42:43.215Z,29.54
2016-11-22T13:43:56.681Z,29.11
2016-11-22T13:45:10.214Z,28.38
2016-11-22T13:46:22.138Z,27.96
2016-11-22T13:47:34.777Z,27.94
2016-11-22T13:48:48.389Z,28.31
2016-11-22T13:50:01.921Z,28.72
2016-11-22T13:51:15.404Z,29.33
2016-11-22T13:52:28.425Z,29.77
2016-11-22T13:53:41.585Z,29.24
2016-11-22T13:54:54.557Z,29.03
2016-11-22T13:56:07.658Z,29.2
2016-11-22T13:57:21.200Z,29.2
2016-11-22T13:58:34.315Z,29.17
2016-11-22T13:59:47.313Z,29.32
2016-11-22T14:01:00.366Z,28.82
2016-11-22T14:02:13.037Z,28.48
2016-11-22T14:03:26.666Z,28.33
2016-11-22T14:04:39.741Z,28.03
2016-11-22T14:05:51.660Z,28.38
2016-11-22T14:07:04.592Z,28.75
2016-11-22T14:08:17.675Z,28.78
2016-11-22T14:09:31.293Z,29.02
2016-11-22T14:10:44.973Z,29.54
2016-11-22T14:11:57.396Z,30.16
2016-11-22T14:13:10.444Z,30.22
2016-11-22T14:14:24.010Z,29.73
2016-11-22T14:15:36.613Z,29.26
2016-11-22T14:18:33.862Z,29.32
2016-11-22T14:19:47.573Z,29.52
2016-11-22T14:21:01.312Z,29.89
2016-11-22T14:22:13.768Z,29.85
2016-11-22T14:23:26.958Z,29.52
2016-11-22T14:24:40.503Z,29.06
2016-11-22T14:25:53.457Z,29.26
2016-11-22T14:27:06.458Z,29.84
2016-11-22T14:28:20.182Z,29.81
2016-11-22T14:29:33.180Z,30.09
2016-11-22T14:30:46.306Z,30.24
2016-11-22T14:31:59.818Z,30.51
2016-11-22T14:33:12.806Z,30.06
2016-11-22T14:34:25.872Z,29.79
2016-11-22T14:35:38.862Z,29.36
2016-11-22T14:38:37.325Z,29.39
2016-11-22T14:39:50.946Z,29.23
2016-11-22T14:41:03.024Z,29.08
2016-11-22T14:42:15.983Z,29.51
2016-11-22T14:43:28.942Z,30.22
2016-11-22T14:44:42.582Z,30.54
2016-11-22T14:45:56.266Z,30.39
2016-11-22T14:47:09.092Z,29.76
2016-11-22T14:48:22.585Z,29.58
2016-11-22T14:49:35.136Z,29.76
2016-11-22T14:50:48.905Z,30.66
2016-11-22T14:52:01.588Z,30.96
2016-11-22T14:53:15.194Z,30.47
2016-11-22T14:54:28.711Z,29.65
2016-11-22T14:55:42.314Z,29.2
2016-11-22T14:56:55.797Z,29.13
2016-11-22T14:58:09.299Z,29.84
2016-11-22T14:59:22.317Z,29.85
2016-11-22T15:00:35.370Z,30.13
2016-11-22T15:01:50.120Z,30.32
2016-11-22T15:03:03.722Z,30.54
2016-11-22T15:04:17.233Z,30.44
2016-11-22T15:05:30.885Z,30.64
2016-11-22T15:06:43.941Z,30.93
2016-11-22T15:07:57.791Z,31.21
2016-11-22T15:09:11.316Z,31.8
2016-11-22T15:10:24.441Z,31.68
2016-11-22T15:11:37.435Z,31.13
2016-11-22T15:12:50.434Z,30.99
2016-11-22T15:14:03.346Z,31.58
2016-11-22T15:15:15.940Z,31.62
2016-11-22T15:16:29.468Z,31.63
2016-11-22T15:17:42.932Z,31.55
2016-11-22T15:18:55.145Z,30.78
2016-11-22T15:20:08.246Z,30.64
2016-11-22T15:21:21.735Z,30.51
2016-11-22T15:22:35.302Z,30.29
2016-11-22T15:23:48.399Z,29.55
2016-11-22T15:25:01.877Z,28.83
2016-11-22T15:26:15.451Z,28.49
2016-11-22T15:27:29.105Z,28.39
2016-11-22T15:28:43.104Z,28.36
2016-11-22T15:29:57.573Z,28.26
2016-11-22T15:31:11.587Z,28.46
2016-11-22T15:32:25.645Z,28.76
2016-11-22T15:33:39.009Z,28.26
2016-11-22T15:34:52.073Z,28.48
2016-11-22T15:36:05.060Z,28.49
2016-11-22T15:37:18.572Z,28.41
2016-11-22T15:38:32.093Z,28.53
2016-11-22T15:39:44.670Z,28.72
2016-11-22T15:40:58.326Z,29.13
2016-11-22T15:42:11.382Z,29.38
2016-11-22T15:43:24.810Z,29.38
2016-11-22T15:44:38.477Z,29.26
2016-11-22T15:45:51.700Z,29.05
2016-11-22T15:47:05.719Z,29.14
2016-11-22T15:48:18.646Z,29.14
2016-11-22T15:49:32.796Z,28.76
2016-11-22T15:50:46.283Z,28.02
2016-11-22T15:51:59.331Z,27.21
2016-11-22T15:53:12.365Z,27.16
2016-11-22T15:54:25.900Z,27.12
2016-11-22T15:55:38.621Z,27.46
2016-11-22T15:56:51.610Z,27.93
2016-11-22T15:58:05.325Z,28.55
2016-11-22T15:59:18.277Z,28.8
2016-11-22T16:00:31.929Z,28.85